To NAV CANADA Home Page Login to a new session Search on AWWS site Feedback and Comments Disclaimer Vers la page française équivalente Tips FAQ What's new on the site To the Forecasts and Observations / NOTAM section To "File a Flight Plan" website Publications and other links Update of the User's profile FIC Telephone Numbers My Weather Data Folder Route Weather Data Regional Weather Data Local Weather Data To the Forecasts and Observations / NOTAM section
Request Generated 05/28/2016 at 11:42:49 UTC . Weather information available at that time is displayed.

METAR/TAF

VANCOUVER INTL/BC    (show WxCam)

METAR CYVR 281100Z 10007KT 10SM -RA FEW015 BKN037 OVC060 10/09 A3004
RMK SC2SC4SC2 CF ASOCTD VIS N 8 SLP175=
METAR CYVR 281000Z 08008KT 12SM -RA FEW028 BKN044 OVC075 10/08 A3005
RMK SC2SC4AC2 SLP177=
METAR CYVR 280900Z 09005KT 12SM -RA FEW028 BKN049 OVC080 10/09 A3006
RMK SC2SC5AC1 SLP182=

TAF CYVR 281138Z 2812/2918 12006KT P6SM -RA SCT020 OVC040 TEMPO
2812/2815 5SM -RA BR BKN020 OVC040
FM281500 13008KT 3SM -SHRA BR SCT008 OVC020 TEMPO 2815/2901 P6SM
-RA SCT020 OVC030
BECMG 2817/2819 13012G22KT
FM290100 12015G25KT 6SM -SHRA SCT020 OVC030
BECMG 2901/2903 16010G20KT
BECMG 2904/2906 VRB03KT
FM290800 30005KT P6SM SCT020 BKN030
RMK NXT FCST BY 281500Z=
Your time UTC time
Weather data provided by Environment Canada and NAV CANADA